広島空港の過去48時間の天気

広島空港 (New hiroshima)

現在時刻: 1/23 17:17 JST (1/23 08:17 UTC) 以下の時間は現地時間です。

過去48時間のMETAR気象情報
時間 風向 風速(m/s) 視程 気温(℃) 湿度(%) 気圧(hPa) 天気現象
23 17:00 西北西 5 10km以上 0 55 1014 周辺でしゅう雨
23 16:00 西北西 6 10km以上 0 69 1014 周辺でしゅう雨
23 15:21 北西 6 5,000m 0 86 1013 弱いしゅう雪
23 15:11 北西 7 4,000m 0 93 1013 弱いしゅう雪
23 15:00 北西 8 1,500m 0 86 1013 弱いしゅう雪
23 14:49 北北西 8 3,000m 1 80 1013 弱いしゅう雪
23 14:00 西北西 8 10km以上 4 45 1012
23 13:01 西 10 10km以上 5 42 1011
23 13:00 西 11 10km以上 5 42 1011
23 12:00 西北西 12 10km以上 5 45 1012
23 11:49 西 13 10km以上 4 48 1012 弱いしゅう雪
23 11:07 西北西 8 10km以上 6 52 1012
23 11:00 西北西 8 10km以上 6 57 1012
23 10:00 西 6 10km以上 4 75 1012
23 09:00 西 5 6,000m 3 93 1012 散在した霧
23 08:00 西北西 4 5,000m 2 100 1011 散在した霧 もや
23 07:00 西 5 4,000m 2 100 1011 散在した霧 もや
23 06:10 西北西 4 5,000m 2 100 1010 散在した霧 もや
22 22:15 西 2 600m -2 100 1012
22 22:00 西北西 1 2,000m -2 100 1011 部分霧 もや
22 21:28 不定 1 2,000m -1 100 1011 地霧 もや
22 21:14 西北西 3 3,000m -1 100 1012 散在した霧 もや
22 21:00 西北西 2 4,000m -1 100 1012 散在した霧 もや
22 20:12 西 1 3,000m 0 100 1012 散在した霧 もや
22 20:00 西 1 3,000m 0 100 1011 散在した霧 もや
22 19:47 北西 1 3,000m 0 100 1012 散在した霧 もや
22 19:35 1 1,600m -1 100 1012 散在した霧 もや
22 19:29 1 800m -1 100 1012
22 19:10 西 1 4,000m 0 100 1012 部分霧
22 19:00 西 2 6,000m 0 100 1012 部分霧
22 18:00 西北西 3 8,000m 0 100 1012 部分霧
22 17:00 西北西 2 10km以上 1 100 1011 散在した霧
22 16:41 西 2 5,000m 2 93 1011 部分霧 もや
22 16:00 不定 1 10km以上 1 93 1011 散在した霧
22 15:16 北北西 2 5,000m 1 93 1011 弱いしゅう雨 弱いしゅう雪 もや
22 15:00 2 3,000m 1 93 1011 弱い雪 もや
22 14:00 4 1,600m 1 93 1010 弱い雪 もや
22 13:00 2 1,200m 1 93 1011 弱い雪 もや
22 12:28 西北西 1 800m 0 100 1011
22 12:10 2 1,200m 0 100 1011 弱い雪 もや
22 12:00 不定 1 500m 0 100 1012
22 11:39 不定 1 800m 0 100 1013
22 11:00 北東 3 1,400m 0 100 1013 弱い雪 もや
22 10:38 東北東 3 2,000m 0 100 1014 弱い雪 もや
22 10:28 東北東 3 1,200m 0 100 1014 弱い雪 もや
22 10:00 東北東 2 800m 0 100 1015
22 09:09 北東 2 900m 0 100 1015
22 09:00 東北東 3 1,400m 1 93 1015 弱い雪 もや
22 08:49 東北東 3 1,400m 1 93 1016 弱い雪 もや
22 08:33 北東 3 2,000m 1 93 1015 弱い雪 もや
22 08:11 東北東 4 1,400m 2 81 1015 弱い雪 もや
22 08:00 東北東 4 3,000m 3 70 1015 弱い雪 もや
22 07:00 東北東 5 10km以上 3 65 1015
22 06:10 東北東 3 10km以上 3 65 1015
RJOA 230800Z 29009KT 9999 VCSH FEW010 SCT025 M00/M08 Q1014
RJOA 230700Z 29012KT 9999 VCSH FEW010 SCT025 00/M05 Q1014
RJOA 230621Z 31011KT 280V350 5000 -SHSN FEW007 SCT015 BKN025 00/M02 Q1013 RMK 1ST007 3CU015 6CU025 A2994
RJOA 230611Z 31014KT 4000 -SHSN FEW007 SCT015 BKN025 00/M01 Q1013 RMK 1ST007 3CU015 6CU025 A2993
RJOA 230600Z 32015KT 1500 R10/P1800N -SHSN FEW007 SCT010 BKN020 00/M02 Q1013
RJOA 230549Z 33015KT 3000 R28/P1800N -SHSN FEW015 BKN030 01/M02 Q1013 RMK 1CU015 7CU030 A2993 1500N
RJOA 230500Z 29015G26KT 9999 FEW020 BKN040 04/M07 Q1012
RJOA 230401Z 28020G30KT 9999 FEW020 SCT040 05/M07 Q1011 RMK 1CU020 3CU040 A2988
RJOA 230400Z 28021KT 9999 FEW020 SCT040 05/M07 Q1011
RJOA 230300Z 29024G38KT 9999 FEW020 SCT040 05/M06 Q1012
RJOA 230249Z 28026G39KT 9999 -SHSN FEW015 SCT040 04/M06 Q1012 RMK 1CU015 4CU040 A2990 MOD TURB OBS AT 0238Z 25NM NE RJOA BTN 10000FT AND 8000FT IN DES B738
RJOA 230207Z 29016G30KT 9999 FEW015 SCT040 06/M03 Q1012 RMK 1CU015 4CU040 A2990
RJOA 230200Z 29015KT 9999 FEW015 SCT040 06/M02 Q1012
RJOA 230100Z 27012KT 9999 FEW015 SCT040 04/M00 Q1012
RJOA 230000Z 27009KT 6000 BCFG FEW000 03/02 Q1012
RJOA 222300Z 29007KT 260V340 5000 BCFG BR FEW000 SCT010 02/02 Q1011
RJOA 222200Z 28009KT 4000 BCFG BR FEW000 SCT010 BKN020 02/02 Q1011
RJOA 222110Z 30007KT 5000 BCFG BR FEW000 SCT010 BKN050 02/02 Q1010 RMK 1ST000 3CU010 5SC050 A2984 FG BANK SE AND SW-W
RJOA 221315Z 28003KT 0600 R10/0200V0300N FG FEW000 SCT001 BKN002 M02/M02 Q1012 RMK 1ST000 3ST001 5ST002 A2989
RJOA 221300Z 29002KT 2000 R10/0250V0450N PRFG BR FEW000 SCT002 M02/M02 Q1011
RJOA 221228Z VRB02KT 2000 R10/0200N MIFG BR FEW000 SCT002 M01/M01 Q1011 RMK 1ST000 3ST002 A2988 FG ON RWY
RJOA 221214Z 30005KT 280V340 3000 R10/0300VP1800D BCFG BR FEW000 SCT002 M01/M01 Q1012 RMK 1ST000 3ST002 A2989 1200W FG E-SE AND SW-W
RJOA 221200Z 29003KT 4000 BCFG BR FEW000 SCT002 M01/M01 Q1012
RJOA 221112Z 28002KT 3000 R10/0700VP1800U BCFG BR FEW000 SCT002 M00/M00 Q1012 RMK 1ST000 3ST002 A2989 FG E-SE AND SW-W
RJOA 221100Z 26001KT 3000 R10/0600VP1800D BCFG BR FEW000 SCT002 00/00 Q1011
RJOA 221047Z 31001KT 3000 R10/0800VP1800U BCFG BR FEW000 SCT002 00/00 Q1012 RMK 1ST000 3ST002 A2989 FG E-SE AND SW-W
RJOA 221035Z 36002KT 1600 R10/0300V0900U BCFG BR FEW000 BKN002 M01/M01 Q1012 RMK 1ST000 5ST002 A2989 FG ALL QUAD
RJOA 221029Z 35002KT 0800 R10/0300N FG FEW000 BKN001 BKN002 M01/M01 Q1012 RMK 1ST000 5ST001 6ST002 A2989
RJOA 221010Z 26002KT 4000 R10/0400VP1800D PRFG FEW000 M00/M00 Q1012 RMK 2ST000 A2989 1200W FG ON RWY10
RJOA 221000Z 28003KT 6000 PRFG FEW000 00/00 Q1012
RJOA 220900Z 30005KT 8000 PRFG FEW000 00/00 Q1012
RJOA 220800Z 30004KT 280V340 9999 R10/P1800N BCFG FEW000 01/01 Q1011
RJOA 220741Z 28003KT 5000 R10/0400VP1800D PRFG BR FEW000 SCT025 02/01 Q1011 RMK 1ST000 3CU025 A2987 1500W FG ON RWY10
RJOA 220700Z VRB01KT 9999 R10/P1800N BCFG FEW000 SCT012 BKN040 01/00 Q1011
RJOA 220616Z 33004KT 5000 -SHRASN BR FEW001 SCT006 BKN012 01/00 Q1011 RMK 1ST001 3ST006 6CU012 A2986
RJOA 220600Z 36003KT 320V040 3000 -SN BR FEW001 SCT006 BKN010 01/00 Q1011
RJOA 220500Z 35007KT 330V080 1600 -SN BR FEW001 SCT003 BKN006 01/00 Q1010
RJOA 220400Z 36004KT 330V050 1200 R10/1400VP1800U -SN BR FEW001 SCT003 BKN005 01/00 Q1011
RJOA 220328Z 29002KT 0800 R10/0600VP1800D SN FEW001 SCT003 BKN005 00/00 Q1011 RMK 1ST001 3ST003 6ST005 A2987
RJOA 220310Z 36003KT 330V070 1200 R10/1500VP1800U -SN BR FEW001 SCT003 BKN006 00/00 Q1011 RMK 1ST001 3ST003 6ST006 A2988 P/FR
RJOA 220300Z VRB02KT 0500 R10/0600V1600U SN FEW001 SCT003 BKN006 00/00 Q1012
RJOA 220239Z VRB02KT 0800 R10/0500VP1800D SN FEW001 SCT003 BKN006 00/00 Q1013 RMK 1ST001 3ST003 6ST006 A2992
RJOA 220200Z 05005KT 1400 R10/P1800N -SN BR FEW001 SCT005 BKN008 00/00 Q1013
RJOA 220138Z 06006KT 2000 -SN BR FEW001 SCT005 BKN008 00/00 Q1014 RMK 1ST001 3ST005 6ST008 A2996
RJOA 220128Z 06006KT 1200 R10/P1800N -SN BR FEW001 SCT005 BKN008 00/00 Q1014 RMK 1ST001 3ST005 6ST008 A2996
RJOA 220100Z 07004KT 0800 R10/P1800N SN FEW001 SCT003 BKN005 00/M00 Q1015
RJOA 220009Z 05004KT 0900 R10/P1800N SN FEW001 SCT003 BKN005 00/M00 Q1015 RMK 1ST001 3ST003 6ST005 A2999
RJOA 220000Z 06005KT 020V080 1400 R10/P1800N -SN BR FEW002 SCT005 BKN007 01/M00 Q1015
RJOA 212349Z 06006KT 1400 R10/P1800N -SN BR FEW002 SCT005 BKN008 01/M00 Q1016 RMK 1ST002 3ST005 6ST008 A3000
RJOA 212333Z 05005KT 2000 -SN BR FEW002 SCT005 BKN008 01/M00 Q1015 RMK 1ST002 3ST005 6ST008 A3000
RJOA 212311Z 06008KT 1400 R10/P1800N -SN BR FEW002 SCT005 BKN007 02/M01 Q1015 RMK 1ST002 3ST005 6ST007 A2999
RJOA 212300Z 06008KT 3000 -SN BR FEW005 BKN010 BKN015 03/M02 Q1015
RJOA 212200Z 07009KT 9999 FEW020 BKN045 03/M03 Q1015
RJOA 212110Z 07006KT 9999 FEW020 BKN090 03/M03 Q1015 RMK 1CU020 7AC090 A2998